createdAt,value
2022-08-04T00:03:11.274Z,15.30
2022-08-04T00:08:27.229Z,22.65
2022-08-04T00:13:32.254Z,23.90
2022-08-04T00:18:39.894Z,19.00
2022-08-04T00:24:11.036Z,23.60
2022-08-04T00:29:09.234Z,21.85
2022-08-04T00:34:13.477Z,24.48
2022-08-04T00:39:18.155Z,23.88
2022-08-04T00:44:32.993Z,27.37
2022-08-04T00:50:03.694Z,21.70
2022-08-04T00:55:33.346Z,19.70
2022-08-04T01:00:46.414Z,19.75
2022-08-04T01:05:57.934Z,19.90
2022-08-04T01:11:13.879Z,18.83
2022-08-04T01:16:18.193Z,18.45
2022-08-04T01:21:53.721Z,27.23
2022-08-04T01:27:04.107Z,18.92
2022-08-04T01:32:19.396Z,18.70
2022-08-04T01:37:35.075Z,28.30
2022-08-04T01:42:39.158Z,21.30
2022-08-04T01:47:49.154Z,16.55
2022-08-04T01:52:54.954Z,20.23
2022-08-04T01:58:00.394Z,18.95
2022-08-04T02:03:04.599Z,27.02
2022-08-04T02:08:18.777Z,20.48
2022-08-04T02:13:27.074Z,20.73
2022-08-04T02:18:33.790Z,21.17
2022-08-04T02:23:38.134Z,15.63
2022-08-04T02:28:48.414Z,16.00
2022-08-04T02:34:01.567Z,30.98
2022-08-04T02:39:06.639Z,16.92
2022-08-04T02:44:10.545Z,18.33
2022-08-04T02:49:16.454Z,16.88
2022-08-04T02:54:31.675Z,21.70
2022-08-04T02:59:49.919Z,19.95
2022-08-04T03:05:00.814Z,17.98
2022-08-04T03:10:22.876Z,17.67
2022-08-04T03:15:54.813Z,23.52
2022-08-04T03:21:22.643Z,15.95
2022-08-04T03:27:00.375Z,18.13
2022-08-04T03:32:47.473Z,18.20
2022-08-04T03:38:17.834Z,20.05
2022-08-04T03:43:57.888Z,16.08
2022-08-04T03:49:28.341Z,20.23
2022-08-04T03:55:16.313Z,20.45
2022-08-04T04:00:21.513Z,20.23
2022-08-04T04:05:59.974Z,22.15
2022-08-04T04:11:54.228Z,25.50
2022-08-04T04:17:10.065Z,19.58
2022-08-04T04:22:30.065Z,25.15
2022-08-04T04:27:43.713Z,17.83
2022-08-04T04:33:15.206Z,20.17
2022-08-04T04:38:45.453Z,20.38
2022-08-04T04:44:11.754Z,16.55
2022-08-04T04:49:29.175Z,18.73
2022-08-04T04:54:37.836Z,15.73
2022-08-04T04:59:47.734Z,17.95
2022-08-04T05:05:22.513Z,15.68
2022-08-04T05:10:46.717Z,15.82
2022-08-04T05:15:53.824Z,16.42
2022-08-04T05:21:00.877Z,20.40
2022-08-04T05:26:10.505Z,17.33
2022-08-04T05:31:18.941Z,14.43
2022-08-04T05:36:40.557Z,10.23
2022-08-04T05:41:55.012Z,12.32
2022-08-04T05:46:59.237Z,15.35
2022-08-04T05:52:03.816Z,11.35
2022-08-04T05:57:09.966Z,8.18
2022-08-04T06:02:14.207Z,7.35
2022-08-04T06:07:17.378Z,10.02
2022-08-04T06:12:23.897Z,12.57
2022-08-04T06:18:42.208Z,8.57
2022-08-04T06:22:58.107Z,11.02
2022-08-04T06:28:06.953Z,10.50
2022-08-04T06:33:10.980Z,6.63
2022-08-04T06:38:14.004Z,7.35
2022-08-04T06:43:20.026Z,13.25
2022-08-04T06:48:22.757Z,10.45
2022-08-04T06:53:35.950Z,6.65
2022-08-04T06:58:41.087Z,10.45
2022-08-04T07:03:44.468Z,11.20
2022-08-04T07:08:51.974Z,7.45
2022-08-04T07:13:57.650Z,6.38
2022-08-04T07:19:10.095Z,6.35
2022-08-04T07:24:16.204Z,9.10
2022-08-04T07:29:20.214Z,8.70
2022-08-04T07:34:24.214Z,5.68
2022-08-04T07:39:29.752Z,6.28
2022-08-04T07:44:35.465Z,11.27
2022-08-04T07:49:55.975Z,6.75
2022-08-04T07:55:01.387Z,12.35
2022-08-04T08:00:07.507Z,14.30
2022-08-04T08:05:12.894Z,5.95
2022-08-04T08:10:15.873Z,7.43
2022-08-04T08:15:20.847Z,7.15
2022-08-04T08:20:29.825Z,8.35
2022-08-04T08:25:33.789Z,5.75
2022-08-04T08:30:37.984Z,7.18
2022-08-04T08:35:54.848Z,9.85
2022-08-04T08:41:15.594Z,5.43
2022-08-04T08:46:49.716Z,4.80
2022-08-04T08:52:06.438Z,3.78
2022-08-04T08:57:22.913Z,5.57
2022-08-04T09:03:05.454Z,7.38
2022-08-04T09:08:23.260Z,9.57
2022-08-04T09:13:34.333Z,7.72
2022-08-04T09:18:42.622Z,6.72
2022-08-04T09:23:56.512Z,6.53
2022-08-04T09:29:07.754Z,9.33
2022-08-04T09:34:15.959Z,7.20
2022-08-04T09:39:29.501Z,10.82
2022-08-04T09:44:53.125Z,13.35
2022-08-04T09:50:07.889Z,5.22
2022-08-04T09:55:19.129Z,9.93
2022-08-04T10:00:40.832Z,9.38
2022-08-04T10:05:58.009Z,7.25
2022-08-04T10:11:09.711Z,11.18
2022-08-04T10:16:28.800Z,8.48
2022-08-04T10:21:59.052Z,8.23
2022-08-04T10:27:10.020Z,8.95
2022-08-04T10:32:17.430Z,6.97
2022-08-04T10:37:54.660Z,4.50
2022-08-04T10:43:00.423Z,8.45
2022-08-04T10:48:10.750Z,6.45
2022-08-04T10:53:20.750Z,5.00
2022-08-04T10:58:47.687Z,4.75
2022-08-04T11:03:56.529Z,4.28
2022-08-04T11:09:01.541Z,6.32
2022-08-04T11:14:09.070Z,5.88
2022-08-04T11:19:44.765Z,4.07
2022-08-04T11:24:54.652Z,7.05
2022-08-04T11:30:05.311Z,7.38
2022-08-04T11:35:13.869Z,6.13
2022-08-04T11:40:24.288Z,5.97
2022-08-04T11:45:34.423Z,7.65
2022-08-04T11:50:40.323Z,7.78
2022-08-04T11:56:09.216Z,7.72
2022-08-04T12:01:12.190Z,10.48
2022-08-04T12:06:21.101Z,5.22
2022-08-04T12:11:38.083Z,9.25
2022-08-04T12:16:51.269Z,8.57
2022-08-04T12:21:57.450Z,9.18
2022-08-04T12:27:05.752Z,4.88
2022-08-04T12:32:22.845Z,4.72
2022-08-04T12:37:35.009Z,5.68
2022-08-04T12:42:56.047Z,8.15
2022-08-04T12:48:06.489Z,3.47
2022-08-04T12:53:31.522Z,4.82
2022-08-04T12:58:43.507Z,4.75
2022-08-04T13:03:52.970Z,6.45
2022-08-04T13:09:02.402Z,2.88
2022-08-04T13:14:26.053Z,2.67
2022-08-04T13:19:41.592Z,3.08
2022-08-04T13:24:56.569Z,1.42
2022-08-04T13:30:10.161Z,1.63
2022-08-04T13:35:15.820Z,1.50
2022-08-04T13:40:23.810Z,0.93
2022-08-04T13:45:35.014Z,1.73
2022-08-04T13:50:45.369Z,1.05
2022-08-04T13:55:48.809Z,2.35
2022-08-04T14:01:07.943Z,1.38
2022-08-04T14:06:25.013Z,2.60
2022-08-04T14:12:09.022Z,4.38
2022-08-04T14:17:02.224Z,1.67
2022-08-04T14:22:06.451Z,8.48
2022-08-04T14:27:09.089Z,6.95
2022-08-04T14:32:14.467Z,6.57
2022-08-04T14:37:20.013Z,2.60
2022-08-04T14:42:40.891Z,3.47
2022-08-04T14:47:52.283Z,1.73
2022-08-04T14:53:03.703Z,1.90
2022-08-04T14:58:35.426Z,2.72
2022-08-04T15:03:31.291Z,1.88
2022-08-04T15:08:35.430Z,1.58
2022-08-04T15:13:37.978Z,2.22
2022-08-04T15:18:41.491Z,1.25
2022-08-04T15:23:46.320Z,2.17
2022-08-04T15:28:54.921Z,1.90
2022-08-04T15:33:59.238Z,2.10
2022-08-04T15:39:12.935Z,4.22
2022-08-04T15:44:50.469Z,5.18
2022-08-04T15:50:08.892Z,2.17
2022-08-04T15:55:36.988Z,2.42
2022-08-04T16:01:16.916Z,4.38
2022-08-04T16:06:45.953Z,6.25
2022-08-04T16:11:50.230Z,6.15
2022-08-04T16:16:52.938Z,6.93
2022-08-04T16:21:57.312Z,8.35
2022-08-04T16:27:02.736Z,6.90
2022-08-04T16:32:13.517Z,5.23
2022-08-04T16:37:17.029Z,4.13
2022-08-04T16:42:36.566Z,7.97
2022-08-04T16:48:01.275Z,7.07
2022-08-04T16:53:39.971Z,13.02
2022-08-04T16:58:36.933Z,9.60
2022-08-04T17:03:40.553Z,6.00
2022-08-04T17:08:43.753Z,10.52
2022-08-04T17:14:04.010Z,6.63
2022-08-04T17:19:24.392Z,2.90
2022-08-04T17:24:29.076Z,2.78
2022-08-04T17:29:44.799Z,3.55
2022-08-04T17:34:49.456Z,8.88
2022-08-04T17:39:52.232Z,3.60
2022-08-04T17:45:39.587Z,4.55
2022-08-04T17:50:31.825Z,4.88
2022-08-04T17:55:41.684Z,4.00
2022-08-04T18:00:46.133Z,9.38
2022-08-04T18:06:03.600Z,11.90
2022-08-04T18:11:06.739Z,4.53
2022-08-04T18:16:22.879Z,2.60
2022-08-04T18:21:25.893Z,5.35
2022-08-04T18:26:31.054Z,5.10
2022-08-04T18:31:35.974Z,3.07
2022-08-04T18:36:40.124Z,3.28
2022-08-04T18:42:03.977Z,4.85
2022-08-04T18:47:22.311Z,2.85
2022-08-04T18:52:45.318Z,2.33
2022-08-04T18:58:11.897Z,1.63
2022-08-04T19:03:40.392Z,4.03
2022-08-04T19:08:50.755Z,3.65
2022-08-04T19:13:57.857Z,2.92
2022-08-04T19:19:06.334Z,1.77
2022-08-04T19:24:27.625Z,2.50
2022-08-04T19:29:37.280Z,13.18
2022-08-04T19:34:42.462Z,2.28
2022-08-04T19:39:49.591Z,4.55
2022-08-04T19:44:55.092Z,5.00
2022-08-04T19:50:04.507Z,2.78
2022-08-04T19:55:12.933Z,2.97
2022-08-04T20:00:16.208Z,3.00
2022-08-04T20:05:20.178Z,3.17
2022-08-04T20:10:47.076Z,3.25
2022-08-04T20:15:57.765Z,5.72
2022-08-04T20:21:02.592Z,3.15
2022-08-04T20:26:05.326Z,2.42
2022-08-04T20:31:08.213Z,2.63
2022-08-04T20:36:12.352Z,5.03
2022-08-04T20:41:15.253Z,3.85
2022-08-04T20:46:28.973Z,1.70
2022-08-04T20:51:40.033Z,2.83
2022-08-04T20:56:50.696Z,2.40
2022-08-04T21:01:54.066Z,5.28
2022-08-04T21:06:59.027Z,2.60
2022-08-04T21:12:01.818Z,4.38
2022-08-04T21:17:07.308Z,3.50
2022-08-04T21:22:12.009Z,6.53
2022-08-04T21:27:14.463Z,3.92
2022-08-04T21:32:18.159Z,4.22
2022-08-04T21:37:23.730Z,3.90
2022-08-04T21:42:49.957Z,3.75
2022-08-04T21:47:56.032Z,4.15
2022-08-04T21:52:59.949Z,5.40
2022-08-04T21:58:02.548Z,5.00
2022-08-04T22:03:05.461Z,4.05
2022-08-04T22:08:23.439Z,2.85
2022-08-04T22:13:52.681Z,4.18
2022-08-04T22:18:48.934Z,2.53
2022-08-04T22:23:58.244Z,2.65
2022-08-04T22:29:06.256Z,4.50
2022-08-04T22:34:08.917Z,4.95
2022-08-04T22:39:13.057Z,4.05
2022-08-04T22:44:16.055Z,4.43
2022-08-04T22:49:18.863Z,3.22
2022-08-04T22:54:29.754Z,2.72
2022-08-04T22:59:34.342Z,2.33
2022-08-04T23:04:37.349Z,2.45
2022-08-04T23:09:51.105Z,6.60
2022-08-04T23:14:55.353Z,3.38
2022-08-04T23:19:59.325Z,3.92
2022-08-04T23:25:04.961Z,4.30
2022-08-04T23:30:08.845Z,3.85
2022-08-04T23:35:11.403Z,3.63
2022-08-04T23:40:33.641Z,2.80
2022-08-04T23:46:06.960Z,3.75
2022-08-04T23:51:07.646Z,3.92
2022-08-04T23:56:19.748Z,3.45
